createdAt,value
2018-12-16T00:04:32.173Z,-0.10
2018-12-16T00:09:11.059Z,-0.20
2018-12-16T00:13:49.901Z,-0.30
2018-12-16T00:18:28.556Z,-0.50
2018-12-16T00:23:07.460Z,-0.60
2018-12-16T00:27:46.422Z,-0.80
2018-12-16T00:32:25.364Z,-0.80
2018-12-16T00:37:04.363Z,-0.90
2018-12-16T00:41:43.204Z,-1.00
2018-12-16T00:46:21.946Z,-1.00
2018-12-16T00:51:00.800Z,-1.00
2018-12-16T00:55:39.555Z,-1.00
2018-12-16T01:00:18.680Z,-1.00
2018-12-16T01:04:57.491Z,-1.00
2018-12-16T01:09:36.248Z,-1.00
2018-12-16T01:14:15.001Z,-1.00
2018-12-16T01:18:54.545Z,-1.10
2018-12-16T01:23:33.490Z,-1.10
2018-12-16T01:28:12.422Z,-1.10
2018-12-16T01:32:51.212Z,-1.10
2018-12-16T01:37:29.968Z,-1.10
2018-12-16T01:42:08.846Z,-1.10
2018-12-16T01:46:47.516Z,-1.10
2018-12-16T01:51:26.168Z,-1.10
2018-12-16T01:56:04.996Z,-1.20
2018-12-16T02:00:43.780Z,-1.20
2018-12-16T02:05:22.675Z,-1.20
2018-12-16T02:10:01.415Z,-1.20
2018-12-16T02:14:40.352Z,-1.20
2018-12-16T02:19:19.065Z,-1.10
2018-12-16T02:23:57.894Z,-1.10
2018-12-16T02:28:36.576Z,-1.20
2018-12-16T02:33:15.360Z,-1.10
2018-12-16T02:37:54.183Z,-1.10
2018-12-16T02:42:32.934Z,-1.10
2018-12-16T02:47:11.792Z,-1.10
2018-12-16T02:51:50.432Z,-1.00
2018-12-16T02:56:29.227Z,-1.00
2018-12-16T03:01:08.042Z,-1.00
2018-12-16T03:05:47.122Z,-0.90
2018-12-16T03:10:25.755Z,-0.90
2018-12-16T03:15:05.269Z,-0.80
2018-12-16T03:19:44.073Z,-0.80
2018-12-16T03:24:22.714Z,-0.70
2018-12-16T03:29:01.504Z,-0.70
2018-12-16T03:33:40.223Z,-0.70
2018-12-16T03:38:18.981Z,-0.70
2018-12-16T03:42:57.868Z,-0.70
2018-12-16T03:47:36.648Z,-0.80
2018-12-16T03:52:15.382Z,-0.80
2018-12-16T03:56:54.135Z,-0.80
2018-12-16T04:01:32.901Z,-0.80
2018-12-16T04:06:11.704Z,-0.80
2018-12-16T04:10:50.440Z,-0.70
2018-12-16T04:15:29.244Z,-0.70
2018-12-16T04:20:07.978Z,-0.70
2018-12-16T04:24:46.656Z,-0.70
2018-12-16T04:29:25.501Z,-0.70
2018-12-16T04:34:04.257Z,-0.70
2018-12-16T04:38:42.860Z,-0.70
2018-12-16T04:43:21.656Z,-0.70
2018-12-16T04:48:00.497Z,-0.70
2018-12-16T04:52:39.439Z,-0.80
2018-12-16T04:57:18.219Z,-0.70
2018-12-16T05:01:56.829Z,-0.70
2018-12-16T05:06:35.782Z,-0.70
2018-12-16T05:11:14.557Z,-0.60
2018-12-16T05:15:53.279Z,-0.60
2018-12-16T05:20:32.205Z,-0.60
2018-12-16T05:25:11.096Z,-0.60
2018-12-16T05:29:49.868Z,-0.70
2018-12-16T05:34:28.664Z,-0.70
2018-12-16T05:39:07.519Z,-0.70
2018-12-16T05:43:46.251Z,-0.60
2018-12-16T05:48:25.181Z,-0.60
2018-12-16T05:53:03.940Z,-0.60
2018-12-16T05:57:42.836Z,-0.50
2018-12-16T06:02:21.464Z,-0.50
2018-12-16T06:07:00.380Z,-0.50
2018-12-16T06:11:39.113Z,-0.50
2018-12-16T06:16:17.756Z,-0.50
2018-12-16T06:20:56.725Z,-0.50
2018-12-16T06:25:35.448Z,-0.40
2018-12-16T06:30:14.748Z,-0.40
2018-12-16T06:34:53.405Z,-0.40
2018-12-16T06:39:32.167Z,-0.40
2018-12-16T06:44:11.057Z,-0.40
2018-12-16T06:48:49.838Z,-0.30
2018-12-16T06:53:28.766Z,-0.30
2018-12-16T06:58:07.656Z,-0.30
2018-12-16T07:02:48.452Z,-0.30
2018-12-16T07:07:27.173Z,-0.20
2018-12-16T07:12:05.932Z,-0.20
2018-12-16T07:16:45.046Z,-0.20
2018-12-16T07:21:23.852Z,-0.20
2018-12-16T07:26:02.757Z,-0.20
2018-12-16T07:30:41.459Z,-0.20
2018-12-16T07:35:20.317Z,-0.20
2018-12-16T07:39:58.934Z,-0.20
2018-12-16T07:44:37.717Z,-0.20
2018-12-16T07:49:16.605Z,-0.20
2018-12-16T07:53:55.505Z,-0.20
2018-12-16T07:58:34.264Z,-0.10
2018-12-16T08:03:13.037Z,-0.10
2018-12-16T08:07:51.941Z,-0.10
2018-12-16T08:12:30.664Z,-0.10
2018-12-16T08:17:09.299Z,0.00
2018-12-16T08:21:48.064Z,0.00
2018-12-16T08:26:26.887Z,0.10
2018-12-16T08:31:05.714Z,0.10
2018-12-16T08:35:44.605Z,0.20
2018-12-16T08:40:23.590Z,0.20
2018-12-16T08:45:02.321Z,0.10
2018-12-16T08:49:40.981Z,0.20
2018-12-16T08:54:19.808Z,0.20
2018-12-16T08:58:58.645Z,0.20
2018-12-16T09:03:37.517Z,0.20
2018-12-16T09:08:16.289Z,0.20
2018-12-16T09:12:55.221Z,0.30
2018-12-16T09:17:33.958Z,0.30
2018-12-16T09:22:13.511Z,0.30
2018-12-16T09:26:52.132Z,0.30
2018-12-16T09:31:30.856Z,0.40
2018-12-16T09:36:09.580Z,0.50
2018-12-16T09:40:48.439Z,0.50
2018-12-16T09:45:28.095Z,0.60
2018-12-16T09:50:06.849Z,0.60
2018-12-16T09:54:46.950Z,0.70
2018-12-16T09:59:26.742Z,0.70
2018-12-16T10:04:05.516Z,0.70
2018-12-16T10:08:44.348Z,0.70
2018-12-16T10:13:22.992Z,0.80
2018-12-16T10:18:01.759Z,0.90
2018-12-16T10:22:40.415Z,0.90
2018-12-16T10:27:19.142Z,1.00
2018-12-16T10:31:57.905Z,1.00
2018-12-16T10:36:36.827Z,1.10
2018-12-16T10:41:15.743Z,1.20
2018-12-16T10:45:54.498Z,1.20
2018-12-16T10:50:33.224Z,1.20
2018-12-16T10:55:11.915Z,1.20
2018-12-16T10:59:50.610Z,1.30
2018-12-16T11:04:29.594Z,1.40
2018-12-16T11:09:08.396Z,1.60
2018-12-16T11:13:47.186Z,1.70
2018-12-16T11:18:25.999Z,1.80
2018-12-16T11:23:04.668Z,1.90
2018-12-16T11:27:43.688Z,2.00
2018-12-16T11:32:22.445Z,2.00
2018-12-16T11:37:01.221Z,2.10
2018-12-16T11:41:39.984Z,2.10
2018-12-16T11:46:18.716Z,2.10
2018-12-16T11:50:57.544Z,2.10
2018-12-16T11:55:36.545Z,2.10
2018-12-16T12:00:15.315Z,2.20
2018-12-16T12:04:54.080Z,2.20
2018-12-16T12:09:32.883Z,2.30
2018-12-16T12:14:11.684Z,2.30
2018-12-16T12:18:58.309Z,2.40
2018-12-16T12:23:37.244Z,2.40
2018-12-16T12:28:16.207Z,2.40
2018-12-16T12:32:55.152Z,2.40
2018-12-16T12:37:35.235Z,2.40
2018-12-16T12:42:14.239Z,2.30
2018-12-16T12:46:53.096Z,2.30
2018-12-16T12:51:31.750Z,2.30
2018-12-16T12:56:10.483Z,2.30
2018-12-16T13:00:49.159Z,2.30
2018-12-16T13:05:27.945Z,2.20
2018-12-16T13:10:08.680Z,2.20
2018-12-16T13:14:47.325Z,2.20
2018-12-16T13:19:26.654Z,2.30
2018-12-16T13:24:05.428Z,2.30
2018-12-16T13:28:44.233Z,2.40
2018-12-16T13:33:22.949Z,2.40
2018-12-16T13:38:01.685Z,2.40
2018-12-16T13:42:40.536Z,2.50
2018-12-16T13:47:19.383Z,2.40
2018-12-16T13:51:58.133Z,2.40
2018-12-16T13:56:37.014Z,2.40
2018-12-16T14:01:15.912Z,2.40
2018-12-16T14:05:54.803Z,2.30
2018-12-16T14:10:34.137Z,2.30
2018-12-16T14:15:12.867Z,2.30
2018-12-16T14:19:51.543Z,2.30
2018-12-16T14:24:30.284Z,2.30
2018-12-16T14:29:09.189Z,2.30
2018-12-16T14:33:47.976Z,2.30
2018-12-16T14:38:27.037Z,2.30
2018-12-16T14:43:05.732Z,2.30
2018-12-16T14:47:44.532Z,2.20
2018-12-16T14:52:23.165Z,2.20
2018-12-16T14:57:01.911Z,2.20
2018-12-16T15:01:40.545Z,2.10
2018-12-16T15:06:19.127Z,2.10
2018-12-16T15:10:57.815Z,2.00
2018-12-16T15:15:36.615Z,2.00
2018-12-16T15:20:15.527Z,2.00
2018-12-16T15:24:54.636Z,2.00
2018-12-16T15:29:33.394Z,2.00
2018-12-16T15:34:12.132Z,2.00
2018-12-16T15:38:50.964Z,2.00
2018-12-16T15:43:29.844Z,1.90
2018-12-16T15:48:08.604Z,1.90
2018-12-16T15:52:47.240Z,1.90
2018-12-16T15:57:25.897Z,1.90
2018-12-16T16:02:04.690Z,1.90
2018-12-16T16:06:43.539Z,1.80
2018-12-16T16:11:22.822Z,1.80
2018-12-16T16:16:01.837Z,1.80
2018-12-16T16:20:41.052Z,1.80
2018-12-16T16:25:19.701Z,1.80
2018-12-16T16:29:58.504Z,1.70
2018-12-16T16:34:37.396Z,1.70
2018-12-16T16:39:17.151Z,1.80
2018-12-16T16:43:56.045Z,1.80
2018-12-16T16:48:34.883Z,1.70
2018-12-16T16:53:13.620Z,1.70
2018-12-16T16:57:52.403Z,1.70
2018-12-16T17:02:31.236Z,1.70
2018-12-16T17:07:10.025Z,1.70
2018-12-16T17:11:48.804Z,1.70
2018-12-16T17:16:27.879Z,1.70
2018-12-16T17:21:06.759Z,1.60
2018-12-16T17:25:48.360Z,1.70
2018-12-16T17:30:26.185Z,1.70
2018-12-16T17:35:06.726Z,1.70
2018-12-16T17:39:45.500Z,1.70
2018-12-16T17:44:24.261Z,1.70
2018-12-16T17:49:04.002Z,1.70
2018-12-16T17:53:42.922Z,1.80
2018-12-16T17:58:21.803Z,1.80
2018-12-16T18:03:00.504Z,1.80
2018-12-16T18:07:39.256Z,1.80
2018-12-16T18:12:17.988Z,1.80
2018-12-16T18:16:57.964Z,1.80
2018-12-16T18:21:36.677Z,1.80
2018-12-16T18:26:15.452Z,1.80
2018-12-16T18:30:54.137Z,1.80
2018-12-16T18:35:32.900Z,1.70
2018-12-16T18:40:11.858Z,1.70
2018-12-16T18:44:50.524Z,1.80
2018-12-16T18:49:29.177Z,1.90
2018-12-16T18:54:07.957Z,1.90
2018-12-16T18:58:46.666Z,1.90
2018-12-16T19:03:25.605Z,2.00
2018-12-16T19:08:04.289Z,2.00
2018-12-16T19:12:43.053Z,1.90
2018-12-16T19:17:22.152Z,1.90
2018-12-16T19:22:01.065Z,1.90
2018-12-16T19:26:39.855Z,1.90
2018-12-16T19:31:18.653Z,1.90
2018-12-16T19:35:57.359Z,1.80
2018-12-16T19:40:36.248Z,1.80
2018-12-16T19:45:15.010Z,1.90
2018-12-16T19:49:53.808Z,1.90
2018-12-16T19:54:33.169Z,1.90
2018-12-16T19:59:11.840Z,1.90
2018-12-16T20:03:56.464Z,1.90
2018-12-16T20:08:35.304Z,2.00
2018-12-16T20:13:14.087Z,2.00
2018-12-16T20:17:52.947Z,2.00
2018-12-16T20:22:31.722Z,2.00
2018-12-16T20:27:12.112Z,2.00
2018-12-16T20:31:50.898Z,2.10
2018-12-16T20:36:29.971Z,2.10
2018-12-16T20:41:08.701Z,2.10
2018-12-16T20:45:47.608Z,2.10
2018-12-16T20:50:26.424Z,2.10
2018-12-16T20:55:06.115Z,2.20
2018-12-16T20:59:44.960Z,2.20
2018-12-16T21:04:24.049Z,2.20
2018-12-16T21:09:03.858Z,2.30
2018-12-16T21:18:48.205Z,2.30
2018-12-16T21:23:26.957Z,2.30
2018-12-16T21:28:06.001Z,2.30
2018-12-16T21:32:44.771Z,2.30
2018-12-16T21:37:23.491Z,2.30
2018-12-16T21:42:02.791Z,2.30
2018-12-16T21:46:41.568Z,2.30
2018-12-16T21:51:20.337Z,2.30
2018-12-16T21:55:59.105Z,2.20
2018-12-16T22:00:37.888Z,2.20
2018-12-16T22:05:16.905Z,2.20
2018-12-16T22:09:55.558Z,2.30
2018-12-16T22:14:34.232Z,2.30
2018-12-16T22:19:13.248Z,2.30
2018-12-16T22:23:52.260Z,2.40
2018-12-16T22:28:31.019Z,2.40
2018-12-16T22:33:09.701Z,2.40
2018-12-16T22:37:48.535Z,2.40
2018-12-16T22:42:27.367Z,2.40
2018-12-16T22:47:06.045Z,2.40
2018-12-16T22:51:44.746Z,2.40
2018-12-16T22:56:23.393Z,2.40
2018-12-16T23:01:08.169Z,2.30
2018-12-16T23:05:47.035Z,2.30
2018-12-16T23:10:26.688Z,2.20
2018-12-16T23:15:06.075Z,2.20
2018-12-16T23:19:47.032Z,2.20
2018-12-16T23:24:26.773Z,2.20
2018-12-16T23:29:06.292Z,2.20
2018-12-16T23:33:45.087Z,2.10
2018-12-16T23:38:23.797Z,2.00
2018-12-16T23:43:03.068Z,1.90
2018-12-16T23:47:41.891Z,1.80
2018-12-16T23:52:20.718Z,1.70
2018-12-16T23:56:59.325Z,1.60
